createdAt,value
2023-04-27T00:01:34.836Z,65.58
2023-04-27T00:04:01.776Z,65.98
2023-04-27T00:06:28.399Z,66.53
2023-04-27T00:08:54.883Z,65.93
2023-04-27T00:11:21.499Z,66.22
2023-04-27T00:13:48.472Z,67.09
2023-04-27T00:16:14.869Z,66.99
2023-04-27T00:18:42.362Z,66.28
2023-04-27T00:21:09.362Z,66.57
2023-04-27T00:23:36.352Z,66.86
2023-04-27T00:26:02.932Z,66.66
2023-04-27T00:28:29.303Z,66.94
2023-04-27T00:30:55.842Z,67.33
2023-04-27T00:33:22.207Z,67.19
2023-04-27T00:35:48.552Z,66.89
2023-04-27T00:38:15.069Z,67.44
2023-04-27T00:40:41.392Z,67.35
2023-04-27T00:43:07.746Z,67.25
2023-04-27T00:45:42.589Z,67.38
2023-04-27T00:48:10.442Z,67.80
2023-04-27T00:50:38.636Z,68.17
2023-04-27T00:53:07.091Z,67.92
2023-04-27T00:55:33.544Z,68.47
2023-04-27T00:57:59.939Z,68.22
2023-04-27T01:00:26.343Z,68.23
2023-04-27T01:02:53.213Z,68.09
2023-04-27T01:05:20.025Z,68.21
2023-04-27T01:07:46.351Z,68.29
2023-04-27T01:10:12.698Z,68.62
2023-04-27T01:12:39.076Z,69.39
2023-04-27T01:15:07.034Z,70.30
2023-04-27T01:17:33.492Z,70.12
2023-04-27T01:20:00.219Z,70.55
2023-04-27T01:22:26.939Z,70.57
2023-04-27T01:24:53.792Z,70.37
2023-04-27T01:27:20.220Z,70.91
2023-04-27T01:29:46.632Z,71.01
2023-04-27T01:32:13.008Z,70.71
2023-04-27T01:34:39.428Z,70.45
2023-04-27T01:37:06.017Z,70.76
2023-04-27T01:39:32.595Z,70.56
2023-04-27T01:41:58.998Z,70.90
2023-04-27T01:44:25.332Z,70.44
2023-04-27T01:46:51.867Z,70.50
2023-04-27T01:49:18.224Z,70.85
2023-04-27T01:51:44.545Z,71.08
2023-04-27T01:54:10.919Z,71.03
2023-04-27T01:56:37.269Z,70.74
2023-04-27T01:59:03.617Z,70.45
2023-04-27T02:01:31.343Z,70.27
2023-04-27T02:03:58.026Z,70.29
2023-04-27T02:06:24.514Z,70.26
2023-04-27T02:08:51.502Z,70.25
2023-04-27T02:11:17.838Z,69.76
2023-04-27T02:13:44.164Z,69.64
2023-04-27T02:16:10.678Z,69.59
2023-04-27T02:18:38.645Z,69.87
2023-04-27T02:21:09.813Z,69.98
2023-04-27T02:23:36.671Z,70.62
2023-04-27T02:26:03.080Z,71.25
2023-04-27T02:28:29.486Z,71.30
2023-04-27T02:30:56.424Z,72.10
2023-04-27T02:33:22.806Z,72.67
2023-04-27T02:35:49.169Z,73.38
2023-04-27T02:38:15.758Z,72.89
2023-04-27T02:40:42.129Z,72.33
2023-04-27T02:43:08.487Z,71.60
2023-04-27T02:45:38.334Z,71.25
2023-04-27T02:48:04.849Z,71.11
2023-04-27T02:50:31.294Z,70.69
2023-04-27T02:52:57.617Z,71.17
2023-04-27T02:55:23.996Z,70.99
2023-04-27T02:57:50.494Z,70.65
2023-04-27T03:00:17.022Z,71.43
2023-04-27T03:02:43.668Z,71.58
2023-04-27T03:05:10.933Z,71.79
2023-04-27T03:07:37.327Z,71.26
2023-04-27T03:10:03.918Z,71.06
2023-04-27T03:12:30.314Z,71.10
2023-04-27T03:14:56.642Z,71.49
2023-04-27T03:17:23.017Z,71.39
2023-04-27T03:19:49.341Z,71.76
2023-04-27T03:22:15.837Z,71.54
2023-04-27T03:24:42.849Z,71.95
2023-04-27T03:27:09.454Z,72.13
2023-04-27T03:29:35.815Z,72.13
2023-04-27T03:32:04.028Z,72.54
2023-04-27T03:34:31.655Z,73.52
2023-04-27T03:36:58.242Z,72.81
2023-04-27T03:39:24.692Z,72.65
2023-04-27T03:41:51.039Z,72.76
2023-04-27T03:44:17.386Z,72.85
2023-04-27T03:46:43.755Z,72.53
2023-04-27T03:49:10.442Z,72.49
2023-04-27T03:51:38.304Z,72.16
2023-04-27T03:54:04.658Z,72.27
2023-04-27T03:56:31.018Z,72.30
2023-04-27T03:58:57.357Z,72.17
2023-04-27T04:01:24.819Z,71.97
2023-04-27T04:03:51.742Z,71.85
2023-04-27T04:06:18.249Z,71.53
2023-04-27T04:08:44.596Z,71.51
2023-04-27T04:11:10.948Z,71.26
2023-04-27T04:13:37.287Z,71.57
2023-04-27T04:16:05.496Z,71.40
2023-04-27T04:18:32.512Z,71.57
2023-04-27T04:20:59.006Z,70.96
2023-04-27T04:23:25.914Z,71.10
2023-04-27T04:25:52.344Z,71.17
2023-04-27T04:28:18.688Z,71.32
2023-04-27T04:30:45.609Z,71.40
2023-04-27T04:33:12.102Z,71.76
2023-04-27T04:35:39.199Z,72.14
2023-04-27T04:38:05.936Z,71.79
2023-04-27T04:40:32.339Z,71.71
2023-04-27T04:42:58.666Z,71.46
2023-04-27T04:45:25.223Z,71.55
2023-04-27T04:47:51.953Z,71.48
2023-04-27T04:50:18.497Z,71.53
2023-04-27T04:52:44.888Z,71.56
2023-04-27T04:55:11.678Z,72.30
2023-04-27T04:57:38.007Z,72.52
2023-04-27T05:00:06.636Z,73.03
2023-04-27T05:02:33.085Z,73.53
2023-04-27T05:04:59.621Z,73.78
2023-04-27T05:07:26.743Z,74.35
2023-04-27T05:09:53.136Z,74.04
2023-04-27T05:12:19.490Z,74.21
2023-04-27T05:14:45.887Z,74.17
2023-04-27T05:17:12.491Z,73.98
2023-04-27T05:19:38.882Z,74.18
2023-04-27T05:22:05.280Z,73.14
2023-04-27T05:24:31.624Z,73.21
2023-04-27T05:26:58.889Z,72.67
2023-04-27T05:29:27.304Z,72.47
2023-04-27T05:31:53.861Z,72.27
2023-04-27T05:34:20.331Z,72.15
2023-04-27T05:36:49.536Z,72.08
2023-04-27T05:39:16.139Z,72.14
2023-04-27T05:41:42.810Z,72.48
2023-04-27T05:44:09.154Z,72.52
2023-04-27T05:46:37.872Z,72.19
2023-04-27T05:49:04.950Z,72.43
2023-04-27T05:51:33.205Z,72.27
2023-04-27T05:54:01.705Z,71.99
2023-04-27T05:56:28.092Z,72.16
2023-04-27T05:58:54.438Z,71.74
2023-04-27T06:01:21.566Z,71.40
2023-04-27T06:03:48.056Z,71.69
2023-04-27T06:06:14.480Z,71.61
2023-04-27T06:08:41.194Z,71.37
2023-04-27T06:11:07.644Z,71.17
2023-04-27T06:13:34.075Z,70.45
2023-04-27T06:16:01.269Z,70.94
2023-04-27T06:18:27.815Z,70.13
2023-04-27T06:20:59.271Z,70.39
2023-04-27T06:23:25.622Z,70.02
2023-04-27T06:25:52.098Z,69.58
2023-04-27T06:30:45.062Z,69.73
2023-04-27T06:33:11.518Z,69.42
2023-04-27T06:35:37.945Z,68.70
2023-04-27T06:38:05.993Z,68.45
2023-04-27T06:40:34.005Z,69.05
2023-04-27T06:43:00.391Z,69.67
2023-04-27T06:45:26.715Z,69.71
2023-04-27T06:47:53.088Z,70.05
2023-04-27T06:50:19.429Z,69.87
2023-04-27T06:52:45.879Z,70.41
2023-04-27T06:55:12.254Z,70.08
2023-04-27T06:57:38.642Z,69.88
2023-04-27T07:00:05.566Z,69.35
2023-04-27T07:02:31.991Z,69.09
2023-04-27T07:04:58.463Z,69.27
2023-04-27T07:07:24.924Z,68.84
2023-04-27T07:09:51.732Z,68.63
2023-04-27T07:12:18.094Z,68.43
2023-04-27T07:14:44.510Z,68.09
2023-04-27T07:17:11.091Z,68.43
2023-04-27T07:19:37.540Z,68.48
2023-04-27T07:22:03.997Z,67.72
2023-04-27T07:24:30.320Z,67.59
2023-04-27T07:26:59.302Z,67.67
2023-04-27T07:29:28.047Z,67.27
2023-04-27T07:31:55.586Z,67.05
2023-04-27T07:34:22.609Z,67.34
2023-04-27T07:36:48.991Z,66.62
2023-04-27T07:39:15.676Z,66.76
2023-04-27T07:41:42.303Z,66.29
2023-04-27T07:44:09.158Z,65.73
2023-04-27T07:46:35.588Z,66.42
2023-04-27T07:49:02.299Z,66.81
2023-04-27T07:51:28.915Z,65.71
2023-04-27T07:53:55.556Z,65.21
2023-04-27T07:56:22.001Z,65.46
2023-04-27T07:58:48.340Z,64.69
2023-04-27T08:01:14.660Z,65.73
2023-04-27T08:03:41.358Z,65.01
2023-04-27T08:06:08.796Z,65.24
2023-04-27T08:08:35.592Z,64.70
2023-04-27T08:11:01.952Z,62.56
2023-04-27T08:13:28.324Z,62.04
2023-04-27T08:15:58.409Z,62.01
2023-04-27T08:18:27.067Z,61.81
2023-04-27T08:20:53.982Z,61.31
2023-04-27T08:23:20.490Z,61.17
2023-04-27T08:25:47.473Z,61.08
2023-04-27T08:28:15.110Z,61.08
2023-04-27T08:30:42.692Z,61.14
2023-04-27T08:33:09.072Z,60.72
2023-04-27T08:35:35.499Z,61.12
2023-04-27T08:38:02.170Z,62.41
2023-04-27T08:40:28.573Z,61.96
2023-04-27T08:42:56.966Z,61.36
2023-04-27T08:45:27.419Z,61.53
2023-04-27T08:47:54.400Z,61.43
2023-04-27T08:50:21.235Z,60.79
2023-04-27T08:52:48.568Z,60.98
2023-04-27T08:55:16.634Z,60.18
2023-04-27T08:57:53.977Z,59.67
2023-04-27T09:00:20.901Z,59.15
2023-04-27T09:02:48.402Z,60.18
2023-04-27T09:05:19.164Z,60.22
2023-04-27T09:08:07.794Z,60.12
2023-04-27T09:10:45.897Z,59.70
2023-04-27T09:13:12.239Z,59.26
2023-04-27T09:15:42.831Z,59.19
2023-04-27T09:18:16.229Z,57.98
2023-04-27T09:20:53.110Z,57.28
2023-04-27T09:23:29.395Z,56.89
2023-04-27T09:25:56.702Z,55.80
2023-04-27T09:28:24.887Z,55.54
2023-04-27T09:31:01.850Z,55.42
2023-04-27T09:33:29.869Z,55.29
2023-04-27T09:35:58.124Z,54.53
2023-04-27T09:38:24.529Z,54.27
2023-04-27T09:40:52.582Z,54.05
2023-04-27T09:43:19.313Z,53.84
2023-04-27T09:45:46.179Z,53.70
2023-04-27T09:48:13.648Z,53.37
2023-04-27T09:50:42.401Z,52.66
2023-04-27T09:53:14.467Z,53.20
2023-04-27T09:56:03.869Z,52.25
2023-04-27T09:58:53.217Z,52.59
2023-04-27T10:01:43.773Z,52.61
2023-04-27T10:04:30.304Z,52.74
2023-04-27T10:07:05.379Z,53.31
2023-04-27T10:09:42.032Z,52.79
2023-04-27T10:12:27.612Z,53.22
2023-04-27T10:14:55.997Z,53.75
2023-04-27T10:17:33.677Z,53.38
2023-04-27T10:20:03.200Z,53.63
2023-04-27T10:22:44.006Z,53.05
2023-04-27T10:25:16.986Z,53.06
2023-04-27T10:27:43.413Z,52.97
2023-04-27T10:30:11.687Z,52.39
2023-04-27T10:32:38.260Z,50.42
2023-04-27T10:35:07.436Z,51.06
2023-04-27T10:37:41.978Z,51.40
2023-04-27T10:40:10.550Z,50.94
2023-04-27T10:42:36.908Z,51.33
2023-04-27T10:45:03.468Z,50.95
2023-04-27T10:47:38.487Z,50.72
2023-04-27T10:50:06.575Z,50.04
2023-04-27T10:52:33.250Z,49.67
2023-04-27T10:55:12.508Z,48.33
2023-04-27T10:57:47.047Z,47.48
2023-04-27T11:00:16.357Z,46.50
2023-04-27T11:02:42.958Z,45.75
2023-04-27T11:05:18.229Z,46.22
2023-04-27T11:07:44.569Z,47.22
2023-04-27T11:10:16.053Z,47.29
2023-04-27T11:12:42.470Z,46.61
2023-04-27T11:15:09.466Z,47.29
2023-04-27T11:17:35.914Z,48.16
2023-04-27T11:20:03.652Z,48.20
2023-04-27T11:22:29.965Z,48.41
2023-04-27T11:24:56.382Z,48.50
2023-04-27T11:27:23.996Z,45.64
2023-04-27T11:29:50.338Z,47.56
2023-04-27T11:32:23.579Z,47.28
2023-04-27T11:34:53.477Z,48.66
2023-04-27T11:37:26.428Z,48.11
2023-04-27T11:39:57.373Z,46.54
2023-04-27T11:42:28.440Z,46.17
2023-04-27T11:45:13.414Z,45.90
2023-04-27T11:47:42.391Z,45.26
2023-04-27T11:50:09.672Z,44.58
2023-04-27T11:52:37.893Z,44.31
2023-04-27T11:55:05.108Z,44.38
2023-04-27T11:57:33.724Z,44.54
2023-04-27T12:00:02.329Z,44.94
2023-04-27T12:02:29.622Z,45.16
2023-04-27T12:04:56.464Z,45.65
2023-04-27T12:07:23.148Z,46.16
2023-04-27T12:09:49.938Z,45.88
2023-04-27T12:12:21.724Z,44.48
2023-04-27T12:14:49.093Z,44.19
2023-04-27T12:17:15.414Z,44.37
2023-04-27T12:19:42.220Z,45.05
2023-04-27T12:22:09.538Z,44.55
2023-04-27T12:24:36.983Z,44.59
2023-04-27T12:27:04.522Z,44.76
2023-04-27T12:29:33.810Z,43.21
2023-04-27T12:32:00.256Z,43.88
2023-04-27T12:34:28.156Z,41.97
2023-04-27T12:36:54.510Z,40.97
2023-04-27T12:39:24.740Z,41.89
2023-04-27T12:41:51.663Z,41.73
2023-04-27T12:44:19.553Z,41.73
2023-04-27T12:46:48.410Z,40.83
2023-04-27T12:49:15.663Z,41.20
2023-04-27T12:51:42.774Z,41.82
2023-04-27T12:54:10.882Z,42.28
2023-04-27T12:56:37.323Z,40.97
2023-04-27T12:59:04.218Z,41.22
2023-04-27T13:01:31.461Z,40.42
2023-04-27T13:04:03.591Z,39.26
2023-04-27T13:06:31.780Z,39.85
2023-04-27T13:09:01.240Z,39.57
2023-04-27T13:11:27.762Z,39.38
2023-04-27T13:13:55.029Z,40.04
2023-04-27T13:16:24.581Z,40.54
2023-04-27T13:18:52.477Z,40.22
2023-04-27T13:21:19.483Z,39.84
2023-04-27T13:23:46.837Z,39.00
2023-04-27T13:26:14.076Z,38.89
2023-04-27T13:28:40.604Z,39.07
2023-04-27T13:31:07.035Z,39.00
2023-04-27T13:33:41.986Z,38.42
2023-04-27T13:36:10.296Z,38.00
2023-04-27T13:38:37.044Z,38.46
2023-04-27T13:41:04.095Z,38.55
2023-04-27T13:43:31.150Z,38.96
2023-04-27T13:46:00.759Z,38.44
2023-04-27T13:48:27.647Z,38.57
2023-04-27T13:50:57.360Z,38.41
2023-04-27T13:53:27.385Z,39.02
2023-04-27T13:55:55.018Z,38.55
2023-04-27T13:58:22.762Z,37.47
2023-04-27T14:00:52.725Z,37.68
2023-04-27T14:03:19.429Z,37.40
2023-04-27T14:05:48.224Z,36.08
2023-04-27T14:08:14.596Z,35.93
2023-04-27T14:10:41.644Z,36.69
2023-04-27T14:13:07.993Z,37.11
2023-04-27T14:15:37.109Z,37.29
2023-04-27T14:18:05.418Z,36.67
2023-04-27T14:20:31.968Z,36.50
2023-04-27T14:22:59.166Z,35.99
2023-04-27T14:25:25.609Z,35.11
2023-04-27T14:27:51.920Z,35.25
2023-04-27T14:30:18.301Z,34.61
2023-04-27T14:32:45.065Z,34.26
2023-04-27T14:35:11.785Z,35.32
2023-04-27T14:37:38.414Z,35.05
2023-04-27T14:40:06.807Z,34.65
2023-04-27T14:42:33.193Z,34.35
2023-04-27T14:44:59.589Z,33.43
2023-04-27T14:47:26.130Z,33.69
2023-04-27T14:49:52.574Z,33.98
2023-04-27T14:52:18.963Z,33.44
2023-04-27T14:54:45.293Z,33.11
2023-04-27T14:57:11.637Z,32.84
2023-04-27T14:59:38.307Z,31.51
2023-04-27T15:02:04.811Z,31.40
2023-04-27T15:04:31.292Z,30.84
2023-04-27T15:06:57.782Z,30.60
2023-04-27T15:09:24.123Z,29.58
2023-04-27T15:11:50.452Z,29.68
2023-04-27T15:14:16.831Z,28.96
2023-04-27T15:16:43.145Z,27.76
2023-04-27T15:19:09.475Z,28.27
2023-04-27T15:21:35.963Z,28.79
2023-04-27T15:24:02.274Z,29.51
2023-04-27T15:26:28.631Z,28.39
2023-04-27T15:28:55.038Z,28.86
2023-04-27T15:31:22.033Z,28.57
2023-04-27T15:33:48.419Z,28.85
2023-04-27T15:36:15.311Z,29.14
2023-04-27T15:38:41.641Z,28.18
2023-04-27T15:41:07.990Z,28.64
2023-04-27T15:43:34.319Z,28.65
2023-04-27T15:46:04.083Z,28.53
2023-04-27T15:48:30.525Z,28.23
2023-04-27T15:50:56.872Z,27.70
2023-04-27T15:53:23.212Z,27.41
2023-04-27T15:55:49.623Z,27.44
2023-04-27T15:58:16.273Z,27.34
2023-04-27T16:00:42.646Z,27.43
2023-04-27T16:03:11.384Z,26.51
2023-04-27T16:05:38.010Z,25.69
2023-04-27T16:08:04.458Z,25.32
2023-04-27T16:10:30.903Z,25.27
2023-04-27T16:12:57.283Z,24.68
2023-04-27T16:15:23.626Z,25.11
2023-04-27T16:17:49.967Z,25.37
2023-04-27T16:20:16.306Z,25.34
2023-04-27T16:22:42.641Z,25.37
2023-04-27T16:25:12.089Z,24.72
2023-04-27T16:27:39.331Z,24.69
2023-04-27T16:30:07.292Z,25.15
2023-04-27T16:32:35.608Z,24.58
2023-04-27T16:35:02.990Z,24.37
2023-04-27T16:37:29.559Z,24.25
2023-04-27T16:39:59.081Z,24.66
2023-04-27T16:42:25.634Z,24.39
2023-04-27T16:44:52.044Z,24.31
2023-04-27T16:47:18.436Z,23.98
2023-04-27T16:49:44.763Z,23.60
2023-04-27T16:52:11.797Z,23.95
2023-04-27T16:54:38.142Z,24.02
2023-04-27T16:57:04.491Z,23.32
2023-04-27T16:59:30.964Z,23.53
2023-04-27T17:02:00.018Z,23.80
2023-04-27T17:04:35.139Z,23.94
2023-04-27T17:07:01.543Z,24.77
2023-04-27T17:09:27.949Z,24.70
2023-04-27T17:11:54.274Z,24.03
2023-04-27T17:14:22.374Z,24.29
2023-04-27T17:16:50.693Z,23.23
2023-04-27T17:19:17.029Z,23.02
2023-04-27T17:21:43.392Z,23.47
2023-04-27T17:24:10.334Z,23.70
2023-04-27T17:26:37.128Z,23.45
2023-04-27T17:29:03.482Z,23.76
2023-04-27T17:31:29.812Z,24.02
2023-04-27T17:33:56.132Z,24.04
2023-04-27T17:36:22.480Z,24.62
2023-04-27T17:38:48.865Z,24.92
2023-04-27T17:41:15.263Z,25.72
2023-04-27T17:43:41.877Z,26.43
2023-04-27T17:46:11.361Z,27.04
2023-04-27T17:48:37.920Z,27.24
2023-04-27T17:51:04.348Z,27.93
2023-04-27T17:53:30.768Z,27.99
2023-04-27T17:55:57.259Z,28.19
2023-04-27T17:58:23.592Z,29.04
2023-04-27T18:00:49.969Z,29.73
2023-04-27T18:03:16.591Z,30.87
2023-04-27T18:05:43.025Z,31.19
2023-04-27T18:08:09.503Z,31.37
2023-04-27T18:10:36.218Z,31.06
2023-04-27T18:13:02.953Z,30.71
2023-04-27T18:15:29.352Z,31.24
2023-04-27T18:17:56.068Z,31.74
2023-04-27T18:20:23.424Z,32.73
2023-04-27T18:22:49.902Z,32.96
2023-04-27T18:25:16.222Z,33.73
2023-04-27T18:27:43.864Z,35.00
2023-04-27T18:30:10.510Z,35.57
2023-04-27T18:32:37.052Z,35.33
2023-04-27T18:35:04.001Z,35.70
2023-04-27T18:37:30.639Z,36.36
2023-04-27T18:39:56.957Z,36.44
2023-04-27T18:42:23.748Z,36.47
2023-04-27T18:44:54.579Z,36.80
2023-04-27T18:47:20.968Z,37.69
2023-04-27T18:49:47.350Z,37.66
2023-04-27T18:52:13.680Z,38.26
2023-04-27T18:54:40.062Z,38.99
2023-04-27T18:57:06.706Z,39.43
2023-04-27T18:59:33.049Z,39.70
2023-04-27T19:01:59.590Z,39.62
2023-04-27T19:04:26.550Z,39.79
2023-04-27T19:06:53.020Z,39.85
2023-04-27T19:09:19.370Z,39.44
2023-04-27T19:11:49.349Z,39.81
2023-04-27T19:14:19.709Z,39.25
2023-04-27T19:16:46.279Z,39.54
2023-04-27T19:19:13.039Z,39.38
2023-04-27T19:21:41.746Z,39.21
2023-04-27T19:24:08.240Z,39.61
2023-04-27T19:26:34.675Z,39.74
2023-04-27T19:29:01.208Z,40.61
2023-04-27T19:31:28.106Z,40.46
2023-04-27T19:33:55.536Z,40.42
2023-04-27T19:36:22.886Z,40.27
2023-04-27T19:38:49.238Z,40.65
2023-04-27T19:41:15.621Z,40.88
2023-04-27T19:43:42.073Z,41.22
2023-04-27T19:46:08.472Z,41.13
2023-04-27T19:48:34.921Z,40.62
2023-04-27T19:51:01.370Z,41.90
2023-04-27T19:53:27.741Z,41.69
2023-04-27T19:55:54.618Z,42.83
2023-04-27T19:58:21.427Z,42.63
2023-04-27T20:00:47.788Z,43.16
2023-04-27T20:03:14.247Z,43.05
2023-04-27T20:05:42.434Z,43.21
2023-04-27T20:08:09.051Z,42.80
2023-04-27T20:10:35.499Z,43.74
2023-04-27T20:13:01.901Z,43.72
2023-04-27T20:15:28.276Z,42.88
2023-04-27T20:17:54.658Z,43.24
2023-04-27T20:20:21.178Z,43.02
2023-04-27T20:22:47.651Z,42.70
2023-04-27T20:25:14.733Z,43.62
2023-04-27T20:27:41.397Z,44.44
2023-04-27T20:30:08.542Z,44.85
2023-04-27T20:32:34.965Z,45.20
2023-04-27T20:35:02.468Z,45.70
2023-04-27T20:37:28.911Z,46.24
2023-04-27T20:39:55.717Z,46.01
2023-04-27T20:42:22.425Z,45.85
2023-04-27T20:44:48.760Z,45.53
2023-04-27T20:47:15.178Z,45.40
2023-04-27T20:49:42.234Z,45.33
2023-04-27T20:52:08.774Z,45.68
2023-04-27T20:54:36.083Z,47.15
2023-04-27T20:57:03.576Z,47.02
2023-04-27T20:59:30.037Z,47.50
2023-04-27T21:01:56.435Z,47.63
2023-04-27T21:04:22.940Z,47.67
2023-04-27T21:06:49.432Z,47.59
2023-04-27T21:09:15.762Z,47.54
2023-04-27T21:11:42.133Z,48.79
2023-04-27T21:14:08.465Z,48.25
2023-04-27T21:16:34.829Z,48.68
2023-04-27T21:19:01.242Z,48.57
2023-04-27T21:21:27.618Z,48.75
2023-04-27T21:24:04.098Z,49.39
2023-04-27T21:26:33.492Z,49.94
2023-04-27T21:28:59.820Z,49.49
2023-04-27T21:31:26.183Z,49.46
2023-04-27T21:33:52.898Z,49.46
2023-04-27T21:36:19.734Z,49.17
2023-04-27T21:38:47.049Z,49.17
2023-04-27T21:41:13.438Z,49.23
2023-04-27T21:43:41.859Z,49.80
2023-04-27T21:46:09.108Z,50.02
2023-04-27T21:48:35.696Z,50.06
2023-04-27T21:51:02.196Z,50.57
2023-04-27T21:53:31.403Z,50.26
2023-04-27T21:55:58.147Z,50.17
2023-04-27T21:58:24.841Z,51.03
2023-04-27T22:00:51.618Z,50.19
2023-04-27T22:03:18.159Z,51.08
2023-04-27T22:05:45.269Z,51.89
2023-04-27T22:08:12.030Z,51.99
2023-04-27T22:10:38.417Z,52.40
2023-04-27T22:13:17.719Z,52.32
2023-04-27T22:15:45.730Z,52.53
2023-04-27T22:18:12.145Z,52.83
2023-04-27T22:20:38.569Z,52.95
2023-04-27T22:23:04.934Z,53.05
2023-04-27T22:25:32.872Z,53.66
2023-04-27T22:27:59.652Z,53.63
2023-04-27T22:30:25.990Z,54.09
2023-04-27T22:32:52.442Z,53.66
2023-04-27T22:35:26.380Z,53.81
2023-04-27T22:37:57.579Z,53.50
2023-04-27T22:40:24.323Z,53.58
2023-04-27T22:42:51.394Z,53.91
2023-04-27T22:45:17.883Z,53.69
2023-04-27T22:47:45.616Z,53.86
2023-04-27T22:50:12.698Z,54.06
2023-04-27T22:52:42.003Z,54.05
2023-04-27T22:55:09.609Z,54.07
2023-04-27T22:57:36.049Z,53.63
2023-04-27T23:00:05.030Z,53.62
2023-04-27T23:02:31.928Z,53.68
2023-04-27T23:04:58.798Z,54.05
2023-04-27T23:07:25.181Z,54.51
2023-04-27T23:09:51.508Z,54.99
2023-04-27T23:12:17.862Z,54.63
2023-04-27T23:14:44.237Z,54.67
2023-04-27T23:17:10.597Z,54.68
2023-04-27T23:19:36.974Z,55.18
2023-04-27T23:22:03.360Z,54.86
2023-04-27T23:24:29.765Z,55.27
2023-04-27T23:26:56.301Z,55.48
2023-04-27T23:29:23.302Z,55.62
2023-04-27T23:31:49.639Z,55.96
2023-04-27T23:34:16.453Z,56.45
2023-04-27T23:36:42.975Z,56.15
2023-04-27T23:39:09.320Z,56.16
2023-04-27T23:41:35.639Z,55.97
2023-04-27T23:44:02.656Z,56.14
2023-04-27T23:46:29.105Z,55.98
2023-04-27T23:48:55.495Z,55.54
2023-04-27T23:51:21.836Z,56.22
2023-04-27T23:53:48.278Z,56.68
2023-04-27T23:56:21.105Z,56.45
2023-04-27T23:58:47.435Z,56.87
